Date,TemperatureHighF,TemperatureAvgF,TemperatureLowF,DewpointHighF,DewpointAvgF,DewpointLowF,HumidityHigh,HumidityAvg,HumidityLow,PressureMaxIn,PressureMinIn,WindSpeedMaxMPH,WindSpeedAvgMPH,GustSpeedMaxMPH,PrecipitationSumIn
2013-1-15,40.8,40.7,40.5,36.7,36.7,36.6,86,86,85,29.76,29.75,14,12,14,0.00
2013-1-16,51.2,45.1,42.1,45.9,44.2,41.8,99,97,82,29.79,29.67,20,5,22,0.00
2013-1-17,48.7,45.3,42.6,47.0,43.1,40.8,99,92,84,29.77,29.32,40,14,43,0.21
2013-1-18,55.4,46.3,39.2,47.0,42.1,33.9,99,86,66,29.32,29.22,32,12,35,0.12
2013-1-19,41.2,36.3,32.0,36.8,32.9,28.5,94,87,79,29.57,29.28,14,7,16,0.00
2013-1-20,35.1,31.8,28.0,28.4,25.6,22.9,93,78,63,29.56,29.32,25,14,26,0.01
2013-1-21,41.4,33.4,29.3,31.6,27.7,25.8,90,80,64,29.39,29.33,14,7,14,0.00
2013-1-22,34.7,28.3,21.2,31.0,25.0,18.8,94,87,78,29.71,29.37,15,5,17,0.00
2013-1-23,37.4,33.1,28.9,31.9,28.7,25.8,89,83,78,29.84,29.64,27,10,27,0.00
2013-1-24,43.9,35.0,25.7,39.7,31.2,22.9,89,86,81,29.96,29.79,31,15,31,0.00
2013-1-25,52.3,46.0,43.2,48.9,41.2,35.1,96,84,65,29.79,29.37,41,17,47,0.21
2013-1-26,53.4,45.3,40.6,50.6,42.1,35.1,95,89,74,29.69,28.99,30,12,43,0.06
2013-1-27,46.2,42.8,37.6,43.7,35.2,31.8,95,75,63,29.42,28.97,35,20,53,7.20
2013-1-28,50.7,45.6,39.4,43.6,38.9,33.7,94,78,65,29.48,29.04,37,20,56,8.14
2013-1-29,55.2,47.5,42.1,51.1,42.4,37.9,92,83,74,29.75,29.00,34,17,46,17.55
2013-1-30,52.5,46.7,43.3,42.0,38.5,35.6,85,73,60,29.86,29.36,36,19,57,9.76
2013-1-31,50.2,47.3,42.6,40.8,37.8,34.1,77,70,64,29.80,29.50,39,22,61,5.88
2013-2-1,54.5,47.6,42.4,40.2,37.2,33.6,77,67,53,30.00,29.59,19,10,32,0.22
2013-2-2,42.4,42.4,42.4,34.8,34.8,34.8,74,74,74,30.00,30.00,7,7,10,0.00
2013-2-3,42.4,42.4,42.4,34.8,34.8,34.8,74,74,74,30.00,30.00,7,7,10,0.00
2013-2-4,48.6,43.5,36.9,41.2,35.3,27.6,91,73,62,30.00,29.59,43,18,56,8.27
2013-2-5,53.5,43.7,34.6,41.1,33.7,26.7,82,68,56,29.78,29.44,40,22,56,2.59
2013-2-6,52.5,44.8,39.2,36.8,33.7,31.9,78,65,52,30.20,29.78,22,8,51,0.02
2013-2-7,55.9,46.2,38.8,45.4,37.2,32.3,92,72,51,30.19,29.97,32,12,55,1.87
2013-2-8,55.2,47.8,44.2,42.4,39.5,34.5,87,74,61,30.21,30.10,17,10,26,0.00
2013-2-9,48.0,46.5,44.8,44.6,43.1,41.1,91,88,81,30.10,29.45,20,13,24,0.02
2013-2-10,48.2,44.7,41.7,44.6,39.0,35.4,93,81,69,29.45,29.13,20,12,37,0.02
2013-2-11,47.1,42.3,39.0,40.9,37.4,35.8,92,83,77,29.66,29.17,10,5,28,0.05
2013-2-12,45.7,41.8,39.0,41.1,38.3,36.5,93,87,81,29.81,29.66,23,7,30,0.02
2013-2-13,52.2,47.6,41.2,48.9,44.9,38.8,94,90,84,29.72,29.50,43,23,55,0.13
2013-2-14,55.8,49.0,42.5,43.3,40.8,38.0,86,74,57,29.94,29.57,24,13,36,0.01
2013-2-15,49.3,45.0,40.5,43.3,39.7,37.3,90,82,68,29.98,29.89,22,9,27,0.00
2013-2-16,53.2,49.5,47.0,47.6,44.2,40.6,90,82,72,29.91,29.74,31,18,40,0.04
2013-2-17,52.9,48.3,43.3,42.2,38.8,33.9,77,70,58,29.74,29.66,32,22,45,0.06
2013-2-18,50.9,45.1,40.8,40.5,35.9,33.8,82,70,55,29.86,29.70,31,14,40,0.00
2013-2-19,53.4,45.8,37.1,41.5,38.4,31.5,84,76,54,29.89,29.83,15,7,18,0.00
2013-2-20,50.3,41.2,34.0,39.5,33.9,29.4,84,76,60,29.89,29.84,28,12,37,0.00
2013-2-21,43.5,39.5,35.4,35.2,29.7,22.8,75,68,58,29.92,29.85,36,19,44,0.00
2013-2-22,37.2,34.8,32.8,23.9,21.5,20.2,64,58,52,30.12,29.92,28,10,37,0.00
2013-2-23,38.5,35.2,32.5,27.6,24.6,20.5,73,65,55,30.19,30.11,7,4,13,0.00
2013-2-24,46.0,36.2,29.8,30.1,24.7,22.8,79,64,44,30.30,30.17,14,6,26,0.00
2013-2-25,49.3,37.6,28.2,31.8,26.3,20.0,76,64,46,30.42,30.30,9,5,15,0.00
2013-2-26,45.2,38.8,30.4,36.0,31.7,26.1,84,75,63,30.51,30.41,13,5,17,0.00
2013-2-27,43.9,41.4,38.3,36.9,35.5,34.2,86,79,73,30.54,30.47,13,5,20,0.00
2013-2-28,44.6,40.3,35.6,37.8,34.4,28.8,85,79,73,30.47,30.38,13,6,21,0.00
2013-3-1,53.8,44.8,40.1,40.6,37.6,32.0,88,77,56,30.39,30.33,12,5,17,0.00
2013-3-2,48.9,40.7,34.7,34.6,31.3,28.7,81,70,51,30.35,30.15,10,4,16,0.00
2013-3-3,47.7,41.3,36.3,34.4,32.2,27.8,81,70,57,30.15,29.86,16,7,21,0.00
2013-3-4,42.6,40.2,37.6,37.5,34.2,30.0,84,79,73,29.87,29.54,15,7,21,0.00
2013-3-5,50.4,42.7,34.4,40.4,35.7,29.5,85,76,63,29.54,29.36,13,6,25,0.05
2013-3-6,50.2,46.0,41.7,45.2,41.8,37.1,89,85,78,29.39,29.22,20,12,27,0.02
2013-3-7,50.9,48.2,46.6,45.9,44.4,43.1,89,87,83,29.22,29.03,18,12,29,0.01
2013-3-8,56.8,51.3,47.6,48.7,45.6,42.6,89,81,68,29.27,29.01,20,13,29,0.01
2013-3-9,57.1,49.0,41.9,45.5,42.4,35.9,86,78,59,29.48,29.22,20,13,37,0.00
2013-3-10,42.4,39.8,35.2,36.3,30.6,20.6,82,70,52,29.78,29.48,22,13,39,0.00
2013-3-11,42.4,34.9,30.7,21.3,17.8,8.8,61,50,27,29.97,29.79,26,16,42,1.11
2013-3-12,50.3,39.0,26.1,34.9,23.6,14.0,81,55,32,30.00,29.91,13,6,22,0.00
2013-3-13,55.9,45.3,36.7,38.7,34.3,31.0,86,67,46,30.00,29.88,16,5,29,0.00
2013-3-14,49.6,44.1,38.1,39.6,36.5,31.9,83,75,64,30.00,29.52,39,14,49,0.01
2013-3-15,50.6,43.6,34.9,41.0,35.6,30.2,87,74,56,29.52,29.18,37,14,44,0.07
2013-3-16,51.6,40.2,31.3,39.5,30.7,27.3,85,70,44,29.45,29.13,10,5,23,0.00
2013-3-17,49.6,42.4,35.1,37.8,34.1,28.3,86,73,59,29.22,29.03,24,8,37,0.01
2013-3-18,57.0,41.4,34.3,36.1,32.4,29.3,85,71,39,29.35,29.06,15,5,27,0.00
2013-3-19,44.1,39.3,34.0,32.7,30.0,25.9,77,69,60,29.42,29.35,16,8,26,0.00
2013-3-20,52.7,40.8,32.2,33.7,29.6,26.4,82,65,39,29.67,29.42,10,4,15,0.00
2013-3-21,43.2,40.3,34.9,39.0,34.0,27.1,86,78,71,29.71,29.17,29,19,49,0.39
2013-3-22,50.2,46.4,43.2,45.5,42.3,38.8,89,86,81,29.39,29.11,31,18,47,0.19
2013-3-23,45.9,42.0,38.7,40.8,36.1,32.1,87,80,71,29.67,29.39,22,15,34,0.00
2013-3-24,38.5,36.8,35.6,32.2,27.9,25.3,78,70,63,29.84,29.67,18,11,30,0.00
2013-3-25,41.2,37.2,33.6,26.4,23.9,21.5,69,59,47,29.93,29.84,22,11,33,0.00
2013-3-26,42.4,36.5,33.0,29.6,26.3,23.2,75,66,56,29.94,29.88,14,7,25,0.00
2013-3-27,43.4,36.4,31.8,30.2,26.2,22.4,79,67,50,29.88,29.85,13,7,23,0.00
2013-3-28,42.7,34.9,29.1,27.6,23.5,19.7,83,64,45,29.87,29.67,21,11,32,0.00
2013-3-29,43.0,36.9,32.7,23.8,22.1,20.3,64,55,44,29.68,29.61,24,14,35,0.00
2013-3-30,45.2,37.7,31.3,24.6,22.3,20.6,65,54,41,29.75,29.67,21,12,31,0.00
2013-3-31,43.0,38.6,33.6,33.5,28.6,22.3,76,67,57,29.69,29.55,29,16,39,0.00
2013-4-1,42.4,38.8,34.9,29.3,25.1,22.0,70,58,48,29.71,29.55,33,18,44,0.00
2013-4-2,49.9,41.1,34.9,27.5,23.4,14.1,62,51,25,29.99,29.71,21,12,29,0.00
2013-4-3,53.1,40.4,31.3,30.4,23.1,15.1,76,53,24,30.09,29.98,16,9,23,0.00
2013-4-4,52.5,41.1,31.5,29.7,24.0,17.5,71,52,33,30.10,30.05,22,9,30,0.00
2013-4-5,57.0,41.1,32.7,31.0,25.4,21.8,69,55,34,30.15,30.08,9,4,15,0.00
2013-4-6,52.9,41.4,30.4,36.3,27.1,18.9,73,58,26,30.16,30.01,14,7,20,0.00
2013-4-7,46.4,41.5,34.9,33.0,29.8,26.0,75,63,51,30.01,29.59,30,13,40,0.00
2013-4-8,49.9,44.3,39.0,33.5,30.1,27.7,69,58,46,29.59,29.27,30,14,40,0.00
2013-4-9,48.4,43.3,39.0,33.2,31.3,29.1,75,63,52,29.46,29.26,16,9,29,0.00
2013-4-10,54.6,45.0,38.5,43.9,37.5,30.9,87,75,55,29.46,29.27,15,7,20,0.04
2013-4-11,55.6,47.4,43.5,43.8,41.1,39.1,89,79,60,29.26,29.10,14,8,22,0.05
2013-4-12,59.0,48.8,43.6,42.9,39.4,36.9,84,71,45,29.55,29.18,15,6,23,0.02
2013-4-13,55.8,45.7,35.2,50.3,41.3,31.8,93,84,77,29.54,29.13,29,12,37,0.02
2013-4-14,57.2,52.2,48.7,47.5,45.0,42.4,90,77,62,29.34,29.12,49,31,56,0.56
2013-4-15,58.8,51.3,48.4,46.1,44.1,39.9,90,77,54,29.60,29.18,49,26,56,0.25
2013-4-16,53.1,50.0,44.2,43.3,39.9,36.4,78,68,59,29.75,29.18,49,28,56,0.70
2013-4-17,58.6,51.4,44.4,52.9,46.2,36.6,92,83,61,29.69,28.96,49,26,56,0.57
2013-4-18,52.8,48.7,45.7,45.3,40.8,38.7,91,74,64,30.04,29.13,37,23,53,3.90
2013-4-19,53.4,49.4,44.6,42.6,40.4,38.2,83,71,62,30.33,30.04,17,11,23,0.00
2013-4-20,55.0,49.0,40.6,43.4,39.9,36.9,89,72,52,30.32,29.99,31,19,41,0.00
2013-4-21,51.2,48.4,44.6,44.0,41.2,39.0,86,76,68,29.99,29.83,37,18,42,0.07
2013-4-22,53.8,50.3,47.8,48.7,46.2,40.6,92,86,76,29.84,29.68,32,21,42,0.00
2013-4-23,56.8,52.3,49.8,49.3,47.0,45.5,92,82,69,30.03,29.84,24,15,31,0.00
2013-4-24,55.4,51.7,44.8,51.1,45.7,39.9,92,80,64,30.13,29.90,35,12,40,0.07
2013-4-25,58.2,49.6,43.0,43.7,39.4,36.6,88,69,46,30.11,30.03,24,12,34,0.05
2013-4-26,53.2,46.6,38.5,38.5,37.6,25.0,100,74,55,30.11,30.04,22,12,27,0.00
2013-4-27,38.5,38.5,38.5,38.5,38.5,38.5,100,100,100,30.11,30.00,0,0,0,0.00
2013-4-28,38.5,38.5,38.5,38.5,38.5,38.5,100,100,100,30.00,29.79,0,0,0,0.00
2013-4-29,38.5,38.5,38.5,38.5,38.5,38.5,100,100,100,30.17,29.83,0,0,0,0.00
2013-4-30,55.6,51.3,38.5,41.5,34.2,29.7,100,56,37,30.25,30.17,18,7,25,0.00
2013-5-1,61.0,52.4,48.0,46.1,41.7,36.2,86,68,42,30.19,30.11,22,12,29,0.00
2013-5-2,48.2,45.6,45.0,40.3,39.3,34.7,82,79,61,30.18,29.98,8,7,12,0.00
2013-5-3,45.0,45.0,45.0,39.8,39.8,39.8,82,82,82,29.98,29.71,8,8,9,0.00
2013-5-4,45.0,45.0,45.0,39.8,39.8,39.8,82,82,82,29.84,29.70,8,8,9,0.00
2013-5-5,45.0,45.0,45.0,39.8,39.8,39.8,82,82,82,29.91,29.82,8,8,9,0.00
2013-5-6,45.0,45.0,45.0,39.8,39.8,39.8,82,82,82,29.89,29.84,8,8,9,0.00
2013-5-7,45.0,45.0,45.0,39.8,39.8,39.8,82,82,82,29.86,29.48,8,8,9,0.00
2013-5-8,45.0,45.0,45.0,39.8,39.8,39.8,82,82,82,29.47,29.18,8,8,9,0.00
2013-5-9,45.0,45.0,45.0,39.8,39.8,39.8,82,82,82,29.24,29.24,8,8,9,0.00
2013-5-10,45.0,45.0,45.0,39.8,39.8,39.8,82,82,82,29.24,29.24,8,8,9,0.00
2013-5-11,45.0,45.0,45.0,39.8,39.8,39.8,82,82,82,29.24,29.24,8,8,9,0.00
2013-5-12,45.0,45.0,45.0,39.8,39.8,39.8,82,82,82,29.24,29.24,8,8,9,0.00
2013-5-13,45.0,45.0,45.0,39.8,39.8,39.8,82,82,82,29.24,29.24,8,8,9,0.00
2013-5-14,45.0,45.0,45.0,39.8,39.8,39.8,82,82,82,29.24,29.24,8,8,9,0.00
2013-5-15,59.3,47.7,45.0,40.5,39.0,34.1,82,73,42,29.49,29.24,17,9,41,0.02
2013-5-16,59.5,49.5,43.9,46.9,42.7,39.6,96,78,56,29.50,29.30,13,6,20,0.29
2013-5-17,67.7,53.4,45.5,45.9,42.6,36.0,94,70,35,29.86,29.50,14,5,30,0.04
2013-5-18,56.5,50.4,46.9,48.0,45.3,41.8,94,83,67,29.86,29.61,14,7,29,0.02
2013-5-19,66.0,52.9,47.3,51.8,48.4,45.8,98,85,59,29.95,29.62,12,4,15,0.00
2013-5-20,59.2,54.5,51.0,51.1,48.9,46.0,93,81,70,30.11,29.94,13,7,30,0.00
2013-5-21,60.3,54.6,50.5,50.8,46.9,43.7,89,76,58,30.15,30.08,21,9,30,0.00
2013-5-22,63.5,56.8,50.7,47.6,42.1,38.6,84,59,41,30.22,30.15,14,8,27,0.00
2013-5-23,60.3,54.0,48.9,40.7,37.9,35.4,67,55,43,30.17,30.07,18,10,34,0.00
2013-5-24,61.4,54.5,49.3,42.4,39.1,36.0,73,57,42,30.11,30.03,17,8,30,0.00
2013-5-25,57.0,51.2,46.4,50.1,46.1,41.5,90,83,63,30.11,30.05,16,7,20,0.07
2013-5-26,68.0,53.2,50.9,51.1,48.9,44.7,95,86,43,30.05,29.56,32,15,40,0.06
2013-5-27,60.1,51.5,47.5,48.7,44.6,41.4,95,78,65,29.55,29.31,35,19,44,0.12
2013-5-28,61.8,54.4,48.2,49.3,45.9,43.7,86,73,55,29.61,29.36,16,9,25,0.37
2013-5-29,72.5,59.5,47.1,50.7,46.2,29.1,91,64,37,29.99,29.53,13,6,30,0.01
2013-5-30,72.3,60.5,52.7,52.7,47.5,45.1,95,64,43,30.08,29.99,14,6,23,0.00
2013-5-31,63.9,57.7,51.8,53.5,47.4,40.3,97,71,43,30.22,29.63,15,7,22,0.00
2013-6-1,55.9,53.4,50.5,50.8,48.1,43.7,88,82,73,30.31,30.19,22,14,29,0.00
2013-6-2,57.7,54.3,51.1,53.9,50.4,47.6,96,87,74,30.36,30.29,15,9,24,0.00
2013-6-3,54.5,53.1,52.7,53.4,50.8,50.1,96,92,91,30.38,30.02,9,7,12,0.00
2013-6-4,77.4,61.4,52.7,53.9,49.4,43.1,91,69,35,30.32,30.13,10,5,16,0.00
2013-6-5,74.1,62.4,50.3,53.7,47.9,42.2,75,60,42,30.13,29.97,15,6,21,0.00
2013-6-6,77.0,64.1,49.5,53.4,49.4,46.1,88,61,38,30.13,30.01,12,6,29,0.00
2013-6-7,78.2,65.7,52.3,55.0,51.3,48.8,89,63,39,30.17,30.11,12,6,29,0.00
2013-6-8,85.8,69.2,54.6,56.5,51.0,46.6,83,55,29,30.16,29.97,8,4,13,0.00
2013-6-9,76.7,64.3,54.7,57.7,54.2,50.3,87,71,49,29.97,29.76,16,5,21,0.00
2013-6-10,59.4,56.7,50.7,52.3,49.5,46.2,88,77,66,29.77,29.57,29,14,37,0.01
2013-6-11,60.4,56.2,52.7,57.7,53.0,49.4,98,89,73,29.58,29.49,21,8,29,0.28
2013-6-12,66.5,56.4,50.5,53.9,50.5,45.0,94,82,53,29.57,29.44,13,4,20,0.25
2013-6-13,61.3,57.2,53.1,52.7,49.3,46.1,91,75,62,29.77,29.47,25,12,34,0.29
2013-6-14,58.6,53.6,49.3,53.0,49.4,45.5,93,86,76,29.73,29.34,30,16,42,0.21
2013-6-15,59.2,55.0,48.2,53.8,48.7,41.7,91,79,71,29.61,29.39,25,18,39,0.11
2013-6-16,63.4,56.2,53.1,53.1,51.3,47.6,93,84,65,29.79,29.61,20,6,29,0.09
2013-6-17,71.1,59.6,54.0,55.6,52.6,51.0,92,79,54,29.91,29.79,10,5,22,0.02
2013-6-18,62.1,58.3,50.7,54.7,52.0,47.2,96,80,66,29.94,29.86,20,8,25,0.00
2013-6-19,61.5,58.0,53.8,52.3,50.0,46.6,82,75,65,29.98,29.90,18,10,24,0.00
2013-6-20,63.3,58.2,53.6,56.7,52.3,49.3,90,81,61,29.90,29.69,18,10,24,0.00
2013-6-21,63.3,57.3,53.2,55.2,50.2,45.3,95,78,57,29.79,29.40,29,12,40,0.05
2013-6-22,63.0,56.7,52.8,53.6,50.9,48.4,89,81,67,29.60,29.27,37,24,51,0.96
2013-6-23,64.7,58.1,53.8,51.1,47.5,44.5,85,68,51,30.13,29.60,25,15,40,0.24
2013-6-24,64.6,57.4,52.0,49.2,47.1,44.1,83,69,52,30.17,30.13,16,8,21,0.00
2013-6-25,63.7,58.6,54.5,54.9,51.3,47.3,85,77,63,30.36,30.16,18,7,24,0.00
2013-6-26,67.3,59.0,54.7,51.9,49.1,46.7,83,70,53,30.43,30.37,16,6,22,0.00
2013-6-27,61.9,57.5,54.0,57.0,54.1,48.6,95,88,81,30.42,30.21,23,15,32,0.05
2013-6-28,62.1,57.8,55.6,56.6,54.5,49.5,95,89,79,30.21,30.06,26,16,35,0.12
2013-6-29,61.9,58.3,55.8,56.7,54.3,49.7,93,87,79,30.17,30.09,24,16,34,0.02
2013-6-30,60.2,58.3,55.8,55.4,51.5,45.5,88,78,64,30.14,29.91,40,24,51,0.21
2013-7-1,60.7,57.4,52.9,50.5,47.9,43.6,87,71,54,29.92,29.74,21,14,30,0.01
2013-7-2,59.7,55.4,51.8,55.8,51.5,47.6,92,87,80,29.73,29.35,30,18,37,0.15
2013-7-3,62.2,58.7,54.9,57.8,53.4,50.1,91,83,71,29.71,29.45,26,15,31,0.00
2013-7-4,61.6,59.1,57.0,58.1,51.7,47.3,92,77,64,30.14,29.66,36,20,46,0.20
2013-7-5,65.9,59.6,56.5,54.6,51.6,48.2,83,75,65,30.25,30.14,23,14,32,0.00
2013-7-6,63.9,58.4,51.6,57.0,52.9,47.6,92,82,73,30.36,30.20,18,11,24,0.01
2013-7-7,83.5,67.5,58.6,66.6,60.6,56.7,94,80,56,30.46,30.37,12,4,16,0.00
2013-7-8,88.3,73.9,60.4,64.6,60.6,57.0,89,66,42,30.47,30.37,9,4,16,0.00
2013-7-9,92.1,76.3,63.3,68.6,63.5,60.3,91,66,42,30.37,30.25,10,4,18,0.00
2013-7-10,89.5,74.2,60.5,65.2,61.0,57.1,91,66,41,30.28,30.17,9,4,17,0.00
2013-7-11,91.5,74.5,61.7,65.3,61.6,58.4,90,67,39,30.21,30.13,8,4,16,0.00
2013-7-12,73.8,67.8,62.1,66.9,62.3,55.8,98,83,70,30.21,30.15,16,7,23,0.00
2013-7-13,80.8,67.7,58.6,61.6,58.4,53.5,95,74,51,30.25,30.20,8,3,25,0.00
2013-7-14,70.9,62.0,54.7,59.1,55.1,51.8,91,78,62,30.24,30.17,22,8,28,0.00
2013-7-15,67.6,63.7,61.0,57.7,54.6,52.1,82,73,62,30.18,30.15,14,8,18,0.00
2013-7-16,71.6,65.9,63.0,62.7,60.2,57.4,88,82,70,30.18,30.12,15,10,24,0.00
2013-7-17,73.2,66.9,60.4,62.3,59.8,57.5,91,78,64,30.26,30.18,13,7,20,0.00
2013-7-18,88.0,72.8,62.8,64.4,61.2,58.9,90,69,42,30.29,30.20,8,3,23,0.21
2013-7-19,88.5,74.6,61.5,64.9,60.4,54.1,87,64,35,30.24,30.09,16,6,25,0.04
2013-7-20,86.4,75.6,63.0,63.5,59.6,56.3,85,60,37,30.13,30.01,13,6,22,0.01
2013-7-21,75.0,68.5,60.4,62.3,59.7,57.3,91,74,60,30.04,29.88,10,6,20,0.00
2013-7-22,74.2,67.5,61.7,63.8,60.1,56.3,90,78,65,29.90,29.75,15,7,21,0.00
2013-7-23,74.6,65.4,61.5,62.3,59.7,54.7,92,82,57,29.76,29.66,16,8,29,0.02
2013-7-24,70.7,63.5,60.4,61.6,59.1,57.2,96,86,68,29.68,29.58,31,13,39,0.26
2013-7-25,71.3,65.0,59.5,63.8,59.0,57.2,97,82,63,29.71,29.65,14,6,20,0.00
2013-7-26,82.2,65.6,56.1,59.4,56.9,53.2,97,75,41,29.72,29.66,21,5,28,0.00
2013-7-27,72.3,64.4,57.2,59.6,57.5,54.3,96,79,57,29.68,29.48,18,7,26,0.02
2013-7-28,70.9,63.7,57.6,59.9,57.6,55.6,95,81,62,29.48,29.40,16,7,20,0.06
2013-7-29,70.7,63.3,59.0,59.5,55.7,50.5,91,77,58,29.70,29.47,24,14,33,0.01
2013-7-30,67.8,61.7,54.3,56.5,53.8,51.4,91,76,63,29.77,29.64,26,15,36,0.11
2013-7-31,69.6,61.3,56.8,65.2,57.5,52.5,95,87,73,29.77,29.50,24,9,36,0.32
2013-8-1,69.4,65.6,63.0,64.7,62.5,57.4,96,90,80,29.51,29.28,21,11,28,0.44
2013-8-2,65.5,62.5,58.1,57.2,55.3,53.2,88,78,69,29.53,29.25,40,26,47,0.59
2013-8-3,65.2,61.2,56.7,55.6,53.3,50.4,89,76,65,29.76,29.53,29,17,36,0.06
2013-8-4,69.6,61.5,52.9,56.7,53.5,50.9,95,76,55,29.77,29.73,20,8,24,0.00
2013-8-5,69.4,61.3,54.0,53.7,51.5,49.1,87,71,49,29.87,29.74,17,6,27,0.00
2013-8-6,70.0,60.3,55.9,55.9,53.7,50.0,92,80,59,29.87,29.76,15,6,24,0.06
2013-8-7,75.4,63.9,53.4,58.3,54.0,47.4,92,72,42,29.95,29.77,9,3,14,0.01
2013-8-8,69.3,61.7,56.7,60.4,56.6,53.9,94,84,66,29.94,29.78,25,13,35,0.04
2013-8-9,69.1,62.6,59.5,55.6,51.3,48.5,84,67,52,30.11,29.87,17,11,28,0.00
2013-8-10,64.9,61.4,57.5,56.1,53.1,49.3,90,74,58,30.11,29.99,22,11,30,0.02
2013-8-11,62.8,59.6,57.5,54.0,51.3,48.0,84,74,63,29.99,29.94,22,14,30,0.02
2013-8-12,70.8,62.1,56.8,53.0,49.7,44.4,82,65,41,30.06,29.94,17,10,27,0.00
2013-8-13,68.3,62.3,58.5,56.9,54.8,52.4,89,77,63,30.09,29.99,20,10,31,0.00
2013-8-14,65.7,62.4,59.5,61.8,59.5,55.3,96,90,82,29.99,29.85,22,14,28,0.05
2013-8-15,67.5,63.6,59.0,64.1,60.1,53.4,95,89,77,29.85,29.64,29,16,36,0.09
2013-8-16,67.6,63.0,58.6,58.6,56.0,53.1,86,78,71,29.83,29.28,29,15,35,0.13
2013-8-17,65.7,62.0,57.8,61.8,57.0,50.6,95,84,70,29.72,29.42,32,19,43,0.05
2013-8-18,63.3,59.5,56.5,53.9,50.7,48.0,86,73,61,29.82,29.53,25,15,37,0.37
2013-8-19,66.4,62.3,57.0,56.7,53.8,50.2,82,74,63,30.15,29.82,21,14,29,0.04
2013-8-20,66.7,62.9,57.7,60.1,56.6,54.1,91,80,66,30.15,29.97,28,16,37,0.00
2013-8-21,65.1,61.9,58.5,61.1,57.6,55.4,92,86,78,30.02,29.93,35,20,44,0.09
2013-8-22,73.1,62.7,56.8,59.3,56.2,54.0,93,80,59,30.01,29.76,21,8,29,0.00
2013-8-23,69.1,62.3,57.9,59.1,54.6,46.4,94,77,58,29.90,29.69,29,13,35,0.07
2013-8-24,63.7,59.7,57.4,59.6,52.9,47.1,93,78,62,29.92,29.79,21,9,27,0.05
2013-8-25,69.1,61.8,56.7,54.8,53.7,52.2,86,75,58,30.11,29.88,9,4,14,0.00
2013-8-26,65.7,60.0,56.1,59.0,55.1,52.6,92,84,75,30.11,30.03,13,4,20,0.00
2013-8-27,69.6,62.9,54.9,60.7,56.4,49.0,90,80,63,30.17,30.01,13,6,23,0.02
2013-8-28,68.3,59.3,52.0,59.4,51.7,47.0,93,77,61,30.17,30.02,25,8,30,0.00
2013-8-29,65.3,61.8,60.1,59.8,57.5,55.7,93,86,75,30.03,29.97,25,16,32,0.00
2013-8-30,68.4,61.7,56.3,60.1,54.8,44.4,92,79,54,30.18,29.86,28,18,40,0.13
2013-8-31,67.1,59.4,56.3,50.3,46.8,42.5,72,63,52,30.39,30.18,20,11,30,0.00
2013-9-1,62.2,59.8,57.9,55.7,50.3,46.8,85,71,66,30.39,30.25,25,17,35,0.13
2013-9-2,63.7,61.7,60.1,59.7,58.3,55.8,93,88,82,30.25,30.20,25,18,36,0.08
2013-9-3,69.3,61.5,54.5,56.8,53.0,48.8,88,74,57,30.23,30.07,17,11,25,0.00
2013-9-4,71.2,60.0,52.9,57.9,53.2,48.8,90,79,56,30.06,29.81,24,14,33,0.05
2013-9-5,67.6,57.3,49.8,51.3,46.2,40.7,94,68,41,29.89,29.83,15,4,29,0.01
2013-9-6,64.6,55.5,48.2,47.3,44.0,41.6,83,66,45,29.87,29.81,15,6,32,0.06
2013-9-7,55.8,53.0,51.6,45.8,44.3,41.7,77,73,62,29.86,29.79,16,9,30,0.05
2013-9-8,59.9,55.6,51.6,47.1,45.2,42.7,80,68,55,29.84,29.79,17,8,24,0.00
2013-9-9,66.8,56.9,50.0,58.5,48.1,43.4,81,73,61,30.22,29.84,9,3,21,0.00
2013-9-10,67.1,59.3,53.8,50.9,48.9,46.4,81,69,54,30.29,30.21,10,5,21,0.00
2013-9-11,66.1,61.1,56.1,59.3,56.2,49.9,91,84,76,30.29,30.07,18,11,25,0.13
2013-9-12,64.4,60.8,56.1,60.4,57.6,49.5,94,89,76,30.07,29.92,28,12,37,0.04
2013-9-13,62.6,56.1,52.2,49.0,46.4,43.8,82,71,52,30.05,29.99,8,2,28,0.00
2013-9-14,63.5,56.2,49.1,50.1,46.7,43.9,87,71,50,30.05,29.89,22,7,29,0.02
2013-9-15,61.6,57.0,50.6,58.8,48.7,38.2,92,75,46,29.89,29.44,41,28,55,14.22
2013-9-16,61.4,54.4,49.9,49.2,42.2,38.7,77,64,48,29.90,29.51,32,18,46,0.97
2013-9-17,63.6,56.8,51.8,57.3,49.9,40.7,92,78,61,29.58,29.28,30,15,44,9.97
2013-9-18,66.9,57.5,52.0,49.2,45.0,41.2,85,64,44,29.78,29.41,15,8,29,0.00
2013-9-19,63.7,58.0,51.3,58.0,47.8,44.2,91,69,53,29.86,29.45,38,19,52,29.67
2013-9-20,67.4,59.3,55.4,54.4,48.9,43.2,87,69,58,29.92,29.85,20,10,23,0.00
2013-9-21,64.0,60.8,58.1,58.9,57.0,54.6,93,87,82,30.09,29.89,26,14,33,0.00
2013-9-22,73.8,65.1,59.2,58.6,56.7,55.0,88,75,56,30.16,30.08,22,12,29,0.00
2013-9-23,76.6,64.5,57.6,62.1,56.9,53.1,86,77,61,30.10,29.90,15,7,24,0.00
2013-9-24,67.2,62.3,59.2,58.6,56.2,54.0,87,81,68,30.05,29.78,13,5,18,0.00
2013-9-25,74.3,63.3,59.4,60.8,56.7,55.0,90,80,57,29.79,29.71,9,3,15,0.00
2013-9-26,69.8,61.7,57.7,59.0,56.0,54.1,89,82,65,29.91,29.76,9,5,16,0.00
2013-9-27,70.1,61.0,52.7,58.6,54.5,48.9,88,80,64,29.83,29.70,13,5,16,0.00
2013-9-28,70.2,61.8,55.4,56.6,53.7,50.7,85,75,60,29.70,29.55,12,7,21,0.00
2013-9-29,65.9,60.1,57.6,53.8,51.5,49.4,82,73,65,29.57,29.51,13,7,23,0.01
2013-9-30,62.5,59.7,57.2,56.1,53.8,49.1,87,81,73,29.51,29.42,17,11,29,0.04
2013-10-1,69.4,63.1,60.6,58.7,56.6,55.4,89,80,63,29.43,29.39,18,11,27,0.01
2013-10-2,70.0,63.9,60.4,58.8,56.1,48.5,86,76,56,29.39,29.33,23,12,31,0.01
2013-10-3,65.8,61.9,59.0,58.4,56.5,53.8,88,82,77,29.44,29.35,18,10,25,0.39
2013-10-4,66.5,60.6,56.8,55.8,52.6,46.7,86,75,62,29.83,29.44,17,9,25,0.01
2013-10-5,66.4,60.6,54.9,55.3,52.0,48.8,87,74,57,30.00,29.83,31,16,35,0.06
2013-10-6,63.5,61.3,57.7,60.5,57.5,51.1,92,87,78,30.00,29.95,24,17,30,0.04
2013-10-7,66.9,62.3,60.6,59.1,57.1,55.6,90,83,75,29.99,29.88,37,18,44,0.04
2013-10-8,66.9,60.6,56.3,56.4,52.2,47.6,87,74,60,30.23,29.95,22,9,29,0.00
2013-10-9,63.0,56.6,50.0,50.7,44.4,38.0,75,64,46,30.25,30.16,23,9,34,0.00
2013-10-10,60.4,51.0,42.6,48.0,38.7,35.6,77,64,44,30.33,29.99,14,5,23,0.00
2013-10-11,60.1,48.3,37.4,45.5,39.7,33.0,86,73,55,30.31,30.25,14,6,25,0.00
2013-10-12,54.0,50.1,43.9,47.4,43.9,40.0,87,79,72,30.26,30.06,10,4,18,0.00
2013-10-13,62.1,52.9,48.7,47.5,45.9,42.9,87,78,54,30.06,29.88,8,4,17,0.00
2013-10-14,64.7,52.8,46.9,48.5,43.3,40.1,86,71,44,29.89,29.76,12,4,15,0.00
2013-10-15,60.4,49.7,41.0,47.1,42.7,37.3,91,77,59,29.76,29.52,14,8,23,0.00
2013-10-16,61.4,55.8,51.3,51.5,49.0,45.0,90,78,66,29.63,29.40,31,14,40,0.66
2013-10-17,65.2,58.1,53.2,53.6,51.6,48.4,87,79,65,29.71,29.45,15,10,21,0.05
2013-10-18,60.4,57.9,55.8,55.0,52.7,49.4,87,83,76,29.67,29.29,26,12,43,3.12
2013-10-19,64.4,57.9,53.1,53.9,51.8,47.1,88,80,64,29.28,29.19,20,10,28,0.01
2013-10-20,60.6,55.2,51.6,55.8,49.9,46.9,88,83,69,29.72,29.06,16,9,22,0.08
2013-10-21,59.9,54.5,48.4,55.7,50.7,45.3,89,87,83,29.37,28.99,16,8,28,0.35
2013-10-22,62.8,57.8,55.0,54.4,52.4,50.0,88,82,71,29.00,28.88,21,12,29,0.14
2013-10-23,61.0,55.2,45.1,50.6,43.1,38.1,84,65,44,29.59,28.92,20,12,34,0.39
2013-10-24,61.5,53.1,44.6,53.5,47.7,35.3,88,82,66,30.03,29.37,17,8,30,0.18
2013-10-25,63.8,57.9,55.0,54.7,52.0,47.3,89,81,63,29.95,29.15,20,11,28,0.15
2013-10-26,58.5,53.8,50.0,49.3,46.6,42.5,87,77,63,29.40,28.94,39,19,45,0.45
2013-10-27,58.8,54.6,50.1,49.0,46.2,43.5,84,73,66,29.74,28.82,43,28,56,12.90
2013-10-28,57.7,52.8,48.4,45.6,42.5,37.4,79,68,54,29.63,28.89,29,15,46,0.76
2013-10-29,61.2,52.6,46.2,44.8,40.3,37.0,85,64,42,29.87,29.54,17,11,27,0.00
2013-10-30,60.7,52.6,44.4,51.9,44.6,40.1,88,75,55,29.84,29.49,33,17,45,0.18
2013-10-31,58.1,52.8,48.6,46.3,43.6,39.9,86,71,59,29.76,29.60,33,22,49,2.46
2013-11-1,61.0,52.0,42.1,47.0,40.6,36.5,84,66,45,29.62,29.40,23,9,36,0.05
2013-11-2,54.1,47.2,42.3,45.3,39.8,35.9,85,76,64,29.40,28.71,40,19,56,2.26
2013-11-3,53.8,47.2,41.0,42.2,39.4,36.3,85,74,58,29.38,29.14,22,9,36,0.07
2013-11-4,53.1,43.5,35.2,48.0,37.9,31.2,90,81,67,29.33,29.09,30,8,43,0.09
2013-11-5,55.2,51.4,47.0,48.1,42.2,39.4,87,71,59,29.29,29.07,25,15,42,0.32
2013-11-6,54.9,50.2,45.1,46.6,41.8,37.0,84,73,63,29.42,29.24,22,8,37,0.19
2013-11-7,55.6,49.9,43.5,45.1,39.8,35.7,83,68,56,29.57,29.37,41,19,53,4.45
2013-11-8,55.1,48.1,44.6,45.8,38.8,34.7,83,70,54,29.51,29.40,28,12,38,0.11
2013-11-9,51.5,45.9,39.9,40.9,38.2,34.8,87,75,58,29.64,29.39,24,7,34,0.12
2013-11-10,55.2,46.1,39.0,52.9,41.9,35.5,92,85,76,29.90,29.65,23,11,34,0.13
2013-11-11,59.2,54.3,50.5,53.2,49.1,43.2,92,83,69,30.07,29.69,29,12,35,0.25
2013-11-12,60.0,51.6,46.0,44.4,41.3,38.4,81,68,48,30.41,30.07,16,8,28,0.00
2013-11-13,53.8,48.7,43.3,48.4,41.3,36.9,87,76,66,30.40,29.97,45,21,53,1.17
2013-11-14,59.4,51.7,46.9,42.0,39.2,36.5,77,63,48,30.51,30.13,22,8,32,0.00
2013-11-15,57.6,52.3,48.4,46.5,44.2,40.1,82,74,64,30.50,30.37,13,7,20,0.00
2013-11-16,53.6,52.2,50.4,49.3,46.9,44.0,91,82,73,30.37,30.25,21,12,30,0.04
2013-11-17,54.0,50.1,47.1,50.9,47.2,43.7,91,90,88,30.25,29.88,23,7,28,0.28
2013-11-18,56.3,47.9,39.0,45.2,38.8,32.2,89,72,55,29.92,29.81,17,7,31,0.01
2013-11-19,54.6,47.1,38.7,42.6,34.6,30.5,82,63,42,30.07,29.86,24,10,37,0.00
2013-11-20,55.6,48.8,43.1,42.7,37.4,31.4,82,65,46,29.86,29.68,29,14,46,0.87
2013-11-21,50.5,44.1,37.9,34.4,32.3,30.1,76,64,48,30.04,29.84,14,6,29,0.00
2013-11-22,49.2,40.9,35.2,35.7,32.8,28.9,82,73,54,30.20,30.04,12,3,15,0.00
2013-11-23,48.0,41.6,31.8,43.2,37.3,27.3,89,85,80,30.35,30.20,6,2,20,0.00
2013-11-24,51.1,44.7,41.5,46.4,41.5,39.1,91,89,84,30.54,30.34,5,1,17,0.00
2013-11-25,52.3,45.7,43.5,42.0,39.8,37.7,90,80,63,30.67,30.54,7,2,20,0.00
2013-11-26,54.3,46.5,42.4,45.0,41.0,38.4,86,81,67,30.66,30.58,9,4,12,0.00
2013-11-27,54.6,50.8,48.4,45.3,43.1,41.1,85,75,63,30.57,30.50,8,4,26,0.00
2013-11-28,52.3,49.7,46.8,45.4,44.2,40.6,88,82,69,30.54,30.46,12,3,21,0.00
2013-11-29,56.5,52.1,47.5,47.5,41.3,36.4,81,67,52,30.46,30.33,20,9,31,0.00
2013-11-30,57.2,48.7,44.4,43.7,40.9,38.5,85,75,57,30.44,30.38,9,4,20,0.00
2013-12-1,49.3,47.3,46.0,45.7,42.2,38.5,90,83,69,30.47,30.40,9,3,13,0.00
2013-12-2,50.0,46.4,44.1,41.9,39.9,37.4,84,78,71,30.43,30.25,18,10,23,0.00
2013-12-3,51.8,48.4,44.4,47.0,43.4,38.3,86,83,77,30.25,30.11,22,13,29,0.07
2013-12-4,56.1,48.6,42.1,40.7,37.2,33.7,79,65,51,30.42,30.25,30,9,41,0.87
2013-12-5,56.5,50.7,45.7,46.6,41.0,37.7,83,70,60,30.30,30.08,46,21,56,29.93
2013-12-6,57.8,51.1,44.8,45.7,42.9,39.2,87,74,62,30.28,30.20,21,10,28,0.00
2013-12-7,52.0,49.5,46.8,46.5,43.8,40.6,87,81,72,30.21,29.97,26,16,35,0.06
2013-12-8,54.3,53.2,51.8,48.2,47.5,46.5,83,81,76,30.04,29.94,36,27,49,0.15
2013-12-9,54.3,51.3,48.0,48.1,44.9,42.0,85,79,71,30.17,29.92,26,18,36,0.21
2013-12-10,56.1,53.6,50.2,50.5,47.4,44.5,82,79,75,29.97,29.87,38,20,47,0.53
2013-12-11,55.0,53.0,51.4,49.3,45.5,43.4,83,76,71,29.97,29.72,38,19,46,0.39
2013-12-12,59.1,56.5,52.9,54.0,51.3,48.0,88,83,76,30.11,29.57,29,18,37,0.00
2013-12-13,56.3,50.5,44.3,51.0,42.0,34.3,86,73,59,29.85,29.48,41,25,54,2.26
2013-12-14,55.6,49.8,44.1,49.7,43.6,36.9,88,79,62,30.00,29.29,47,17,56,2.29
2013-12-15,50.9,47.2,42.6,44.2,40.6,34.8,87,78,59,29.73,29.39,33,9,46,0.05
2013-12-16,52.7,46.7,40.3,42.7,36.1,31.5,83,67,53,29.91,29.41,43,16,51,1.22
2013-12-17,48.2,43.9,38.1,44.1,36.9,33.3,88,76,70,29.94,29.36,44,24,55,0.28
2013-12-18,52.6,48.6,40.8,48.5,41.9,31.1,90,78,58,29.36,28.61,46,28,56,29.76
2013-12-19,49.4,43.4,37.4,36.5,33.4,28.9,85,68,51,29.56,28.97,39,20,54,3.00
2013-12-20,54.0,48.4,43.2,49.1,41.6,35.6,87,78,62,29.65,29.28,53,30,56,4.82
2013-12-21,50.8,46.4,42.6,42.3,38.2,33.5,83,73,61,29.41,29.21,48,28,56,2.11
2013-12-22,45.8,42.0,37.6,36.7,33.7,28.3,85,73,54,29.48,29.25,44,23,56,5.60
2013-12-23,52.3,46.3,38.1,47.0,39.9,31.9,89,79,61,29.43,28.20,46,26,56,5.52
2013-12-24,45.1,42.3,39.0,37.3,32.0,24.3,85,67,44,28.25,28.17,48,26,56,29.95
2014-1-1,47.5,44.9,41.0,40.7,39.0,36.5,86,80,71,28.89,28.54,32,11,39,0.01
2014-1-2,48.6,46.4,43.2,45.0,38.9,33.5,100,75,63,28.96,28.39,52,22,57,3.66